createdAt,value
2024-03-15T00:00:40.755Z,47.49
2024-03-15T00:01:49.437Z,47.49
2024-03-15T01:32:36.746Z,47.52
2024-03-15T01:33:38.583Z,47.66
2024-03-15T01:34:40.368Z,47.57
2024-03-15T01:35:42.101Z,47.69
2024-03-15T01:36:43.865Z,47.65
2024-03-15T01:37:45.626Z,47.56
2024-03-15T01:38:47.572Z,47.77
2024-03-15T01:39:49.655Z,47.64
2024-03-15T01:40:51.450Z,47.65
2024-03-15T01:41:53.082Z,47.58
2024-03-15T01:42:54.773Z,47.59
2024-03-15T01:43:56.639Z,47.61
2024-03-15T01:44:58.282Z,47.37
2024-03-15T01:45:59.945Z,47.52
2024-03-15T01:47:01.646Z,47.46
2024-03-15T01:48:03.242Z,47.61
2024-03-15T01:49:05.816Z,47.45
2024-03-15T01:50:07.485Z,47.53
2024-03-15T01:51:09.243Z,47.42
2024-03-15T01:52:11.067Z,47.42
2024-03-15T01:53:13.785Z,47.45
2024-03-15T01:54:15.459Z,47.41
2024-03-15T01:55:17.062Z,47.37
2024-03-15T01:56:19.158Z,47.51
2024-03-15T01:57:20.984Z,47.39
2024-03-15T01:58:22.572Z,47.39
2024-03-15T01:59:24.368Z,47.58
2024-03-15T02:00:26.114Z,47.60
2024-03-15T02:01:28.109Z,47.59
2024-03-15T02:02:29.779Z,47.59
2024-03-15T02:03:31.476Z,47.54
2024-03-15T02:04:33.148Z,47.45
2024-03-15T02:05:34.717Z,47.47
2024-03-15T02:06:36.234Z,47.63
2024-03-15T02:07:37.925Z,47.53
2024-03-15T02:08:39.471Z,47.66
2024-03-15T02:09:41.530Z,47.75
2024-03-15T02:10:46.189Z,47.70
2024-03-15T02:11:47.884Z,47.72
2024-03-15T02:12:49.627Z,47.72
2024-03-15T02:13:51.628Z,47.64
2024-03-15T02:14:53.272Z,47.73
2024-03-15T02:15:54.959Z,47.62
2024-03-15T02:16:56.723Z,47.77
2024-03-15T02:17:58.460Z,47.66
2024-03-15T02:19:00.221Z,47.69
2024-03-15T02:20:01.917Z,47.70
2024-03-15T02:21:03.507Z,47.60
2024-03-15T02:22:05.148Z,47.70
2024-03-15T02:23:06.946Z,47.54
2024-03-15T02:24:08.676Z,47.45
2024-03-15T02:25:10.764Z,47.63
2024-03-15T02:26:12.379Z,47.64
2024-03-15T02:27:14.163Z,47.38
2024-03-15T02:28:15.834Z,47.38
2024-03-15T02:29:18.321Z,47.54
2024-03-15T02:30:20.227Z,47.56
2024-03-15T02:31:21.986Z,47.51
2024-03-15T02:32:23.659Z,47.54
2024-03-15T02:33:25.464Z,47.61
2024-03-15T02:34:27.071Z,47.38
2024-03-15T02:35:32.700Z,47.53
2024-03-15T02:36:34.907Z,47.46
2024-03-15T02:37:36.653Z,47.43
2024-03-15T02:38:38.340Z,47.33
2024-03-15T02:39:39.884Z,47.39
2024-03-15T02:40:41.505Z,47.40
2024-03-15T02:41:43.151Z,47.44
2024-03-15T02:42:45.113Z,47.41
2024-03-15T02:43:46.838Z,47.29
2024-03-15T02:44:48.509Z,47.53
2024-03-15T02:45:50.333Z,47.67
2024-03-15T02:46:52.074Z,47.57
2024-03-15T02:47:53.653Z,47.58
2024-03-15T02:48:57.046Z,47.49
2024-03-15T02:49:58.681Z,47.50
2024-03-15T02:51:00.397Z,47.58
2024-03-15T02:52:02.122Z,47.61
2024-03-15T02:53:03.788Z,47.58
2024-03-15T02:54:07.212Z,47.57
2024-03-15T02:55:08.850Z,47.75
2024-03-15T02:56:10.561Z,47.62
2024-03-15T02:57:12.187Z,47.57
2024-03-15T02:58:14.130Z,47.47
2024-03-15T02:59:15.732Z,47.64
2024-03-15T03:00:17.381Z,47.71
2024-03-15T03:01:22.801Z,47.65
2024-03-15T03:02:24.518Z,47.54
2024-03-15T03:03:26.238Z,47.56
2024-03-15T03:04:27.881Z,47.75
2024-03-15T03:05:29.526Z,47.79
2024-03-15T03:06:31.134Z,47.73
2024-03-15T03:07:35.718Z,47.79
2024-03-15T03:08:37.349Z,47.74
2024-03-15T03:09:38.989Z,47.83
2024-03-15T03:10:40.940Z,47.88
2024-03-15T03:11:42.513Z,47.88
2024-03-15T03:12:44.346Z,47.87
2024-03-15T03:13:46.122Z,47.79
2024-03-15T03:14:47.892Z,47.98
2024-03-15T03:15:49.637Z,47.77
2024-03-15T03:16:51.666Z,47.78
2024-03-15T03:17:53.314Z,47.83
2024-03-15T03:18:55.047Z,47.72
2024-03-15T03:19:56.735Z,47.89
2024-03-15T03:20:58.423Z,47.81
2024-03-15T03:22:05.703Z,47.90
2024-03-15T03:23:07.372Z,47.96
2024-03-15T03:24:09.602Z,47.94
2024-03-15T03:25:11.286Z,47.97
2024-03-15T03:26:13.023Z,47.81
2024-03-15T03:27:14.789Z,47.94
2024-03-15T03:28:16.577Z,47.84
2024-03-15T03:29:18.487Z,47.93
2024-03-15T03:30:20.170Z,47.90
2024-03-15T03:31:21.831Z,48.04
2024-03-15T03:32:23.476Z,47.96
2024-03-15T03:33:25.207Z,48.06
2024-03-15T03:34:26.910Z,48.01
2024-03-15T03:35:28.624Z,47.94
2024-03-15T03:36:30.399Z,48.01
2024-03-15T03:37:32.050Z,48.13
2024-03-15T03:38:33.719Z,48.09
2024-03-15T03:39:36.824Z,48.23
2024-03-15T03:40:38.615Z,48.18
2024-03-15T03:41:40.482Z,48.06
2024-03-15T03:42:46.552Z,48.33
2024-03-15T03:43:48.222Z,48.26
2024-03-15T03:44:50.033Z,48.30
2024-03-15T03:45:51.812Z,48.41
2024-03-15T03:46:57.009Z,48.17
2024-03-15T03:47:58.796Z,48.19
2024-03-15T03:49:00.541Z,48.23
2024-03-15T03:50:02.231Z,48.41
2024-03-15T03:51:06.139Z,48.52
2024-03-15T03:52:07.868Z,48.44
2024-03-15T03:53:11.778Z,48.71
2024-03-15T03:54:13.667Z,48.61
2024-03-15T03:55:15.349Z,48.71
2024-03-15T03:56:17.005Z,48.82
2024-03-15T03:57:18.751Z,48.84
2024-03-15T03:58:22.593Z,48.95
2024-03-15T03:59:27.184Z,48.92
2024-03-15T04:00:31.790Z,49.05
2024-03-15T04:01:33.433Z,49.06
2024-03-15T04:02:35.221Z,49.09
2024-03-15T04:03:36.935Z,49.15
2024-03-15T04:04:43.931Z,49.23
2024-03-15T04:05:45.609Z,49.30
2024-03-15T04:06:47.301Z,49.35
2024-03-15T04:07:49.248Z,49.50
2024-03-15T04:08:50.880Z,49.46
2024-03-15T04:09:52.585Z,49.62
2024-03-15T04:10:56.272Z,49.43
2024-03-15T04:11:58.190Z,49.50
2024-03-15T04:12:59.858Z,49.67
2024-03-15T04:14:01.527Z,49.58
2024-03-15T04:15:11.443Z,49.45
2024-03-15T04:16:21.840Z,49.37
2024-03-15T04:17:23.606Z,49.31
2024-03-15T04:18:25.262Z,49.48
2024-03-15T04:19:26.859Z,49.61
2024-03-15T04:20:29.177Z,49.47
2024-03-15T04:21:31.430Z,49.54
2024-03-15T04:22:35.882Z,49.61
2024-03-15T04:23:37.691Z,49.67
2024-03-15T04:24:39.352Z,49.50
2024-03-15T04:25:41.109Z,49.75
2024-03-15T04:26:42.696Z,49.71
2024-03-15T04:27:44.325Z,49.75
2024-03-15T04:28:46.026Z,49.79
2024-03-15T04:29:47.583Z,49.75
2024-03-15T04:30:49.408Z,49.67
2024-03-15T04:31:51.132Z,49.78
2024-03-15T04:32:52.806Z,49.91
2024-03-15T04:33:54.504Z,49.91
2024-03-15T04:34:56.240Z,50.01
2024-03-15T04:35:57.847Z,49.92
2024-03-15T04:36:59.447Z,49.94
2024-03-15T04:38:01.066Z,49.83
2024-03-15T04:39:02.746Z,49.94
2024-03-15T04:40:04.432Z,50.14
2024-03-15T04:41:06.134Z,49.90
2024-03-15T04:42:17.114Z,49.32
2024-03-15T04:43:18.769Z,49.62
2024-03-15T04:44:20.378Z,49.63
2024-03-15T04:45:21.990Z,49.90
2024-03-15T04:46:23.774Z,50.01
2024-03-15T04:47:25.435Z,50.00
2024-03-15T04:48:27.114Z,50.25
2024-03-15T04:49:32.309Z,50.27
2024-03-15T04:50:34.031Z,50.21
2024-03-15T04:51:35.819Z,50.32
2024-03-15T04:52:37.413Z,50.32
2024-03-15T04:53:39.098Z,50.44
2024-03-15T04:54:40.964Z,50.61
2024-03-15T04:55:42.779Z,50.61
2024-03-15T04:56:44.455Z,50.55
2024-03-15T04:57:46.191Z,50.57
2024-03-15T04:58:47.863Z,50.60
2024-03-15T04:59:49.422Z,50.65
2024-03-15T05:00:51.075Z,50.66
2024-03-15T05:01:52.785Z,50.72
2024-03-15T05:02:55.428Z,50.76
2024-03-15T05:03:58.236Z,50.65
2024-03-15T05:04:59.933Z,50.66
2024-03-15T05:06:02.778Z,50.82
2024-03-15T05:07:07.323Z,50.85
2024-03-15T05:08:08.952Z,50.87
2024-03-15T05:09:12.095Z,50.89
2024-03-15T05:10:14.219Z,51.05
2024-03-15T05:11:16.111Z,51.08
2024-03-15T05:12:19.343Z,50.91
2024-03-15T05:13:21.015Z,51.11
2024-03-15T05:14:23.328Z,51.00
2024-03-15T05:15:25.270Z,51.11
2024-03-15T06:38:02.613Z,51.40
2024-03-15T06:39:04.158Z,51.43
2024-03-15T06:40:05.870Z,51.73
2024-03-15T06:41:09.488Z,51.91
2024-03-15T06:42:12.702Z,51.97
2024-03-15T06:43:14.354Z,51.93
2024-03-15T06:44:15.949Z,52.11
2024-03-15T06:45:17.591Z,52.19
2024-03-15T06:46:19.273Z,52.21
2024-03-15T06:47:20.822Z,52.33
2024-03-15T06:48:22.441Z,52.35
2024-03-15T06:49:24.071Z,52.59
2024-03-15T06:50:25.673Z,52.68
2024-03-15T06:51:27.411Z,52.66
2024-03-15T06:52:28.991Z,53.03
2024-03-15T06:53:30.544Z,52.99
2024-03-15T06:54:32.159Z,53.08
2024-03-15T06:55:33.730Z,52.99
2024-03-15T06:56:35.292Z,52.98
2024-03-15T06:57:36.868Z,53.14
2024-03-15T06:58:38.453Z,53.08
2024-03-15T06:59:42.608Z,53.03
2024-03-15T07:00:44.433Z,53.28
2024-03-15T07:04:35.470Z,53.08
2024-03-15T07:05:56.297Z,53.10
2024-03-15T07:07:05.696Z,53.26
2024-03-15T07:08:28.943Z,53.30
2024-03-15T07:11:17.032Z,53.11
2024-03-15T07:12:30.895Z,53.04
2024-03-15T10:23:37.026Z,37.10
2024-03-15T10:24:38.777Z,36.32
2024-03-15T10:25:40.362Z,36.83
2024-03-15T10:26:41.951Z,36.76
2024-03-15T10:27:43.711Z,36.22
2024-03-15T10:28:45.446Z,36.40
2024-03-15T10:29:47.052Z,35.70
2024-03-15T10:30:48.848Z,36.28
2024-03-15T10:31:50.558Z,35.86
2024-03-15T10:32:52.177Z,35.58
2024-03-15T10:33:53.859Z,36.04
2024-03-15T10:34:55.454Z,35.18
2024-03-15T10:35:57.041Z,35.21
2024-03-15T10:36:58.791Z,35.30
2024-03-15T10:38:00.451Z,36.13
2024-03-15T10:39:02.248Z,36.19
2024-03-15T10:40:03.848Z,35.67
2024-03-15T10:41:05.473Z,36.43
2024-03-15T10:42:07.286Z,35.82
2024-03-15T10:43:08.931Z,36.00
2024-03-15T10:44:10.612Z,35.88
2024-03-15T10:45:12.205Z,36.52
2024-03-15T10:46:13.787Z,35.81
2024-03-15T10:47:15.430Z,35.87
2024-03-15T10:48:17.161Z,35.44
2024-03-15T10:49:18.865Z,35.40
2024-03-15T10:50:20.466Z,35.99
2024-03-15T10:51:22.206Z,35.39
2024-03-15T10:52:23.881Z,35.96
2024-03-15T10:53:25.530Z,35.19
2024-03-15T10:54:27.310Z,34.96
2024-03-15T10:55:28.898Z,35.21
2024-03-15T10:56:30.504Z,35.39
2024-03-15T10:57:32.192Z,35.07
2024-03-15T10:58:33.775Z,35.70
2024-03-15T10:59:35.301Z,35.28
2024-03-15T11:00:36.963Z,35.50
2024-03-15T11:01:38.764Z,35.09
2024-03-15T11:02:40.377Z,35.20
2024-03-15T11:03:42.032Z,35.33
2024-03-15T11:04:43.655Z,35.27
2024-03-15T11:05:45.250Z,35.68
2024-03-15T11:06:47.158Z,35.83
2024-03-15T11:07:48.880Z,35.56
2024-03-15T11:08:50.481Z,35.71
2024-03-15T11:09:52.164Z,35.47
2024-03-15T11:10:53.815Z,35.67
2024-03-15T11:11:55.487Z,35.66
2024-03-15T11:12:57.252Z,35.24
2024-03-15T11:13:58.895Z,35.78
2024-03-15T11:15:00.508Z,35.40
2024-03-15T11:16:02.148Z,36.23
2024-03-15T11:17:03.922Z,36.03
2024-03-15T11:18:05.522Z,35.40
2024-03-15T11:19:07.171Z,35.91
2024-03-15T11:20:08.865Z,35.63
2024-03-15T11:21:10.490Z,35.87
2024-03-15T11:22:12.103Z,35.95
2024-03-15T11:23:13.674Z,36.26
2024-03-15T11:24:15.332Z,36.22
2024-03-15T11:25:17.004Z,36.46
2024-03-15T11:26:18.562Z,36.14
2024-03-15T11:27:20.434Z,36.63
2024-03-15T11:28:22.303Z,36.36
2024-03-15T11:29:24.002Z,36.13
2024-03-15T11:30:25.608Z,36.31
2024-03-15T11:31:27.218Z,35.75
2024-03-15T11:32:28.899Z,35.51
2024-03-15T11:33:30.646Z,35.43
2024-03-15T11:34:32.478Z,35.85
2024-03-15T11:35:34.813Z,35.62
2024-03-15T11:36:37.032Z,35.53
2024-03-15T11:37:38.685Z,35.42
2024-03-15T11:38:40.287Z,35.88
2024-03-15T11:39:41.970Z,35.62
2024-03-15T11:40:43.654Z,36.05
2024-03-15T11:41:45.273Z,36.15
2024-03-15T11:42:56.193Z,36.23
2024-03-15T11:44:01.546Z,36.28
2024-03-15T11:45:03.112Z,36.29
2024-03-15T11:46:04.905Z,36.52
2024-03-15T11:47:06.617Z,36.06
2024-03-15T11:48:08.272Z,35.58
2024-03-15T11:49:09.878Z,35.67
2024-03-15T11:50:11.433Z,35.57
2024-03-15T11:51:13.202Z,35.51
2024-03-15T11:52:14.923Z,35.52
2024-03-15T11:53:16.567Z,35.46
2024-03-15T11:54:18.136Z,35.10
2024-03-15T11:55:19.957Z,34.72
2024-03-15T11:56:21.617Z,35.17
2024-03-15T11:57:23.250Z,35.13
2024-03-15T11:58:24.852Z,35.51
2024-03-15T11:59:26.412Z,35.46
2024-03-15T12:00:28.036Z,34.90
2024-03-15T12:01:29.817Z,35.38
2024-03-15T12:02:31.569Z,35.67
2024-03-15T12:03:33.172Z,35.83
2024-03-15T12:04:34.737Z,35.53
2024-03-15T12:05:38.032Z,35.63
2024-03-15T12:06:39.972Z,35.35
2024-03-15T12:07:41.576Z,34.87
2024-03-15T12:08:43.211Z,35.18
2024-03-15T12:09:44.963Z,35.54
2024-03-15T12:10:46.728Z,35.30
2024-03-15T12:11:48.505Z,35.02
2024-03-15T12:12:50.102Z,34.66
2024-03-15T12:13:51.719Z,34.64
2024-03-15T12:14:53.308Z,34.91
2024-03-15T12:15:55.143Z,34.79
2024-03-15T12:16:56.972Z,34.75
2024-03-15T12:17:58.760Z,34.85
2024-03-15T12:19:00.594Z,35.67
2024-03-15T12:20:02.441Z,35.79
2024-03-15T12:21:04.087Z,35.65
2024-03-15T12:22:05.869Z,35.13
2024-03-15T12:23:07.524Z,35.11
2024-03-15T12:24:09.149Z,35.37
2024-03-15T12:25:10.710Z,35.97
2024-03-15T12:26:12.313Z,35.93
2024-03-15T12:27:13.985Z,36.22
2024-03-15T12:28:15.746Z,35.81
2024-03-15T12:29:17.334Z,36.35
2024-03-15T12:30:19.098Z,35.87
2024-03-15T12:31:21.845Z,36.21
2024-03-15T12:32:23.414Z,36.21
2024-03-15T12:33:25.075Z,36.00
2024-03-15T12:34:26.670Z,36.34
2024-03-15T12:35:28.392Z,35.81
2024-03-15T12:36:30.034Z,36.64
2024-03-15T12:37:31.627Z,36.42
2024-03-15T12:38:33.146Z,36.31
2024-03-15T12:39:34.813Z,35.91
2024-03-15T12:40:36.394Z,35.99
2024-03-15T12:41:37.950Z,35.87
2024-03-15T12:42:39.634Z,35.85
2024-03-15T12:43:41.213Z,35.92
2024-03-15T12:44:42.749Z,35.81
2024-03-15T12:45:44.388Z,36.03
2024-03-15T12:46:46.008Z,35.92
2024-03-15T12:47:47.581Z,35.40
2024-03-15T12:48:51.085Z,35.69
2024-03-15T12:49:53.519Z,35.44
2024-03-15T12:50:55.078Z,36.08
2024-03-15T12:51:56.722Z,35.99
2024-03-15T12:52:58.418Z,35.37
2024-03-15T12:54:00.006Z,35.52
2024-03-15T12:55:01.652Z,35.85
2024-03-15T12:56:03.252Z,35.68
2024-03-15T12:57:04.805Z,35.32
2024-03-15T12:58:06.564Z,35.44
2024-03-15T12:59:08.182Z,35.27
2024-03-15T13:00:09.736Z,34.80
2024-03-15T13:01:11.377Z,35.50
2024-03-15T13:02:13.073Z,35.36
2024-03-15T13:03:14.778Z,35.47
2024-03-15T13:04:16.449Z,35.33
2024-03-15T13:05:18.000Z,35.35
2024-03-15T13:06:19.592Z,35.58
2024-03-15T13:07:21.275Z,35.20
2024-03-15T13:08:22.903Z,35.74
2024-03-15T13:09:24.470Z,35.30
2024-03-15T13:10:26.073Z,35.50
2024-03-15T13:11:27.742Z,35.92
2024-03-15T13:12:29.349Z,35.98
2024-03-15T13:13:30.975Z,35.81
2024-03-15T13:14:32.545Z,35.20
2024-03-15T13:15:34.227Z,35.56
2024-03-15T13:16:35.794Z,35.65
2024-03-15T13:17:37.355Z,35.32
2024-03-15T13:18:39.018Z,35.36
2024-03-15T13:19:41.041Z,35.51
2024-03-15T13:20:42.642Z,35.55
2024-03-15T13:21:44.312Z,35.58
2024-03-15T13:22:45.873Z,35.15
2024-03-15T13:23:47.461Z,35.12
2024-03-15T13:24:49.487Z,35.35
2024-03-15T13:25:51.062Z,35.86
2024-03-15T13:26:53.799Z,35.86
2024-03-15T13:27:56.611Z,36.15
2024-03-15T13:28:58.212Z,36.04
2024-03-15T13:29:59.763Z,36.27
2024-03-15T13:31:01.328Z,35.97
2024-03-15T13:32:02.915Z,36.37
2024-03-15T13:33:04.563Z,36.37
2024-03-15T13:34:06.176Z,36.36
2024-03-15T13:35:08.170Z,36.37
2024-03-15T13:36:09.818Z,36.22
2024-03-15T13:37:11.372Z,36.37
2024-03-15T13:38:12.951Z,35.96
2024-03-15T13:39:14.555Z,36.65
2024-03-15T13:40:16.168Z,36.03
2024-03-15T13:41:17.742Z,35.76
2024-03-15T13:42:19.327Z,36.11
2024-03-15T13:43:20.909Z,35.82
2024-03-15T13:44:22.521Z,35.17
2024-03-15T13:45:24.726Z,35.23
2024-03-15T13:46:26.615Z,35.12
2024-03-15T13:47:28.215Z,35.36
2024-03-15T13:48:29.817Z,34.78
2024-03-15T13:49:31.461Z,35.14
2024-03-15T13:50:33.006Z,35.17
2024-03-15T13:51:34.661Z,34.83
2024-03-15T13:52:36.240Z,34.82
2024-03-15T13:53:37.858Z,34.69
2024-03-15T13:54:39.476Z,34.82
2024-03-15T13:55:41.039Z,34.28
2024-03-15T13:56:42.603Z,34.08
2024-03-15T13:57:44.233Z,34.53
2024-03-15T13:58:45.868Z,34.18
2024-03-15T13:59:47.447Z,34.27
2024-03-15T14:00:49.038Z,34.76
2024-03-15T14:01:50.653Z,34.84
2024-03-15T14:02:52.290Z,35.23
2024-03-15T14:03:54.978Z,35.70
2024-03-15T14:04:56.900Z,35.50
2024-03-15T14:05:58.455Z,35.97
2024-03-15T14:07:00.067Z,36.12
2024-03-15T14:08:01.705Z,35.88
2024-03-15T14:09:03.255Z,35.96
2024-03-15T14:10:04.918Z,35.85
2024-03-15T14:11:06.470Z,36.01
2024-03-15T14:12:08.182Z,35.97
2024-03-15T14:13:09.969Z,35.83
2024-03-15T14:14:11.721Z,36.11
2024-03-15T14:15:13.280Z,35.95
2024-03-15T14:16:15.530Z,35.80
2024-03-15T14:17:17.413Z,36.18
2024-03-15T14:18:19.134Z,36.48
2024-03-15T14:19:20.877Z,36.10
2024-03-15T14:20:22.528Z,36.34
2024-03-15T14:22:39.738Z,36.61
2024-03-15T14:23:41.359Z,36.72
2024-03-15T14:24:42.996Z,36.35
2024-03-15T14:25:44.779Z,36.71
2024-03-15T14:26:46.437Z,36.69
2024-03-15T14:27:48.102Z,36.75
2024-03-15T14:28:49.673Z,36.78
2024-03-15T14:29:51.245Z,36.69
2024-03-15T14:30:54.959Z,36.53
2024-03-15T14:31:58.900Z,36.84
2024-03-15T14:33:00.512Z,36.81
2024-03-15T14:34:02.241Z,36.38
2024-03-15T14:35:09.723Z,36.46
2024-03-15T14:36:11.452Z,36.08
2024-03-15T14:37:15.095Z,35.84
2024-03-15T14:38:17.333Z,35.46
2024-03-15T14:39:18.971Z,35.88
2024-03-15T14:40:20.574Z,36.54
2024-03-15T14:41:22.139Z,37.15
2024-03-15T14:42:23.701Z,37.71
2024-03-15T14:43:25.268Z,37.82
2024-03-15T14:44:26.837Z,38.36
2024-03-15T14:45:28.472Z,38.07
2024-03-15T14:46:30.076Z,37.31
2024-03-15T14:47:31.750Z,36.65
2024-03-15T14:48:33.440Z,36.78
2024-03-15T14:49:37.663Z,37.07
2024-03-15T14:50:39.252Z,37.37
2024-03-15T14:51:40.919Z,37.53
2024-03-15T14:52:42.487Z,38.15
2024-03-15T14:53:44.022Z,38.29
2024-03-15T14:54:45.625Z,38.58
2024-03-15T14:55:47.161Z,38.66
2024-03-15T14:56:48.842Z,38.73
2024-03-15T14:57:50.508Z,38.88
2024-03-15T14:58:52.155Z,38.74
2024-03-15T14:59:53.726Z,38.96
2024-03-15T15:00:55.327Z,39.53
2024-03-15T15:01:57.284Z,39.10
2024-03-15T15:02:58.948Z,39.37
2024-03-15T15:04:00.665Z,39.18
2024-03-15T15:05:02.296Z,39.38
2024-03-15T15:06:04.092Z,39.50
2024-03-15T15:07:05.821Z,39.74
2024-03-15T15:08:07.579Z,39.58
2024-03-15T15:09:09.227Z,39.39
2024-03-15T15:10:10.803Z,39.58
2024-03-15T15:11:12.508Z,40.00
2024-03-15T15:12:14.459Z,40.35
2024-03-15T15:13:16.192Z,40.03
2024-03-15T15:14:20.585Z,40.59
2024-03-15T15:15:25.249Z,40.68
2024-03-15T15:16:29.220Z,40.08
2024-03-15T15:17:33.563Z,40.73
2024-03-15T15:18:36.270Z,40.36
2024-03-15T15:19:38.051Z,40.85
2024-03-15T15:20:39.693Z,40.84
2024-03-15T15:21:41.395Z,40.62
2024-03-15T15:22:43.684Z,41.11
2024-03-15T15:23:45.379Z,41.14
2024-03-15T15:24:48.506Z,40.98
2024-03-15T15:25:50.191Z,41.04
2024-03-15T15:26:51.919Z,41.49
2024-03-15T15:27:53.616Z,41.65
2024-03-15T15:28:55.521Z,41.35
2024-03-15T15:29:57.269Z,41.49
2024-03-15T15:30:58.932Z,41.83
2024-03-15T15:32:00.653Z,41.44
2024-03-15T15:33:12.827Z,41.39
2024-03-15T15:34:14.721Z,42.01
2024-03-15T15:35:16.367Z,42.01
2024-03-15T15:36:20.917Z,42.29
2024-03-15T15:37:22.831Z,41.89
2024-03-15T15:38:24.455Z,42.19
2024-03-15T15:39:26.075Z,42.59
2024-03-15T15:40:30.917Z,42.23
2024-03-15T15:41:33.785Z,42.42
2024-03-15T15:42:36.114Z,42.80
2024-03-15T15:43:37.867Z,42.61
2024-03-15T15:44:39.487Z,42.76
2024-03-15T15:45:44.355Z,42.72
2024-03-15T15:46:49.119Z,43.13
2024-03-15T15:47:50.882Z,43.17
2024-03-15T15:48:52.501Z,43.06
2024-03-15T15:49:54.266Z,42.91
2024-03-15T15:50:56.021Z,42.92
2024-03-15T15:51:57.690Z,43.07
2024-03-15T15:52:59.356Z,43.47
2024-03-15T15:54:00.957Z,43.33
2024-03-15T15:55:02.927Z,43.43
2024-03-15T15:56:04.643Z,43.14
2024-03-15T15:57:06.240Z,43.59
2024-03-15T15:58:08.000Z,43.48
2024-03-15T15:59:09.771Z,43.61
2024-03-15T16:00:11.401Z,43.56
2024-03-15T16:01:13.230Z,43.65
2024-03-15T16:02:14.978Z,43.73
2024-03-15T16:03:16.709Z,43.62
2024-03-15T16:04:18.413Z,43.73
2024-03-15T16:05:20.154Z,43.74
2024-03-15T16:06:22.051Z,43.71
2024-03-15T16:07:23.865Z,44.36
2024-03-15T16:08:25.566Z,44.13
2024-03-15T16:09:27.171Z,44.62
2024-03-15T16:10:29.015Z,44.41
2024-03-15T16:11:31.849Z,44.40
2024-03-15T16:12:33.642Z,44.28
2024-03-15T16:13:35.236Z,44.50
2024-03-15T16:14:36.862Z,44.36
2024-03-15T16:15:38.578Z,44.49
2024-03-15T16:16:40.228Z,44.72
2024-03-15T16:17:41.886Z,44.33
2024-03-15T16:18:43.713Z,44.44
2024-03-15T16:19:45.390Z,44.53
2024-03-15T16:20:47.007Z,44.48
2024-03-15T16:21:48.621Z,44.25
2024-03-15T16:22:50.314Z,44.73
2024-03-15T16:23:51.970Z,44.51
2024-03-15T16:24:53.702Z,44.92
2024-03-15T16:25:55.338Z,45.06
2024-03-15T16:26:56.961Z,44.48
2024-03-15T16:27:58.675Z,44.61
2024-03-15T16:29:00.278Z,45.17
2024-03-15T16:30:04.316Z,44.57
2024-03-15T16:31:06.214Z,45.13
2024-03-15T16:32:07.886Z,45.17
2024-03-15T16:33:12.833Z,45.13
2024-03-15T16:34:15.024Z,44.94
2024-03-15T16:35:16.653Z,45.25
2024-03-15T16:36:18.294Z,44.91
2024-03-15T16:37:19.855Z,45.41
2024-03-15T16:38:21.617Z,45.28
2024-03-15T16:39:23.277Z,45.52
2024-03-15T16:40:24.992Z,45.02
2024-03-15T16:41:26.639Z,45.52
2024-03-15T16:42:28.316Z,45.11
2024-03-15T16:43:29.946Z,45.70
2024-03-15T16:44:31.524Z,45.33
2024-03-15T16:45:33.141Z,45.71
2024-03-15T16:46:34.712Z,45.50
2024-03-15T16:47:36.259Z,45.68
2024-03-15T16:48:37.924Z,45.85
2024-03-15T16:49:39.523Z,45.51
2024-03-15T16:50:41.084Z,45.53
2024-03-15T16:51:42.792Z,45.65
2024-03-15T16:52:44.544Z,45.57
2024-03-15T16:53:46.289Z,45.94
2024-03-15T16:54:48.131Z,45.79
2024-03-15T16:55:52.721Z,45.89
2024-03-15T16:56:55.019Z,45.92
2024-03-15T16:57:57.991Z,45.57
2024-03-15T16:58:59.773Z,46.07
2024-03-15T17:00:01.329Z,46.04
2024-03-15T17:01:03.011Z,45.81
2024-03-15T17:02:04.660Z,45.88
2024-03-15T17:03:06.468Z,46.28
2024-03-15T17:04:08.100Z,46.45
2024-03-15T17:05:09.774Z,46.18
2024-03-15T17:06:11.366Z,46.03
2024-03-15T17:07:13.095Z,46.33
2024-03-15T17:08:14.771Z,46.21
2024-03-15T17:09:16.623Z,46.36
2024-03-15T17:10:18.407Z,46.69
2024-03-15T17:11:21.294Z,46.39
2024-03-15T17:12:22.935Z,46.34
2024-03-15T17:13:24.566Z,46.22
2024-03-15T17:14:26.201Z,46.34
2024-03-15T17:15:27.918Z,46.40
2024-03-15T17:16:29.604Z,46.55
2024-03-15T17:17:31.180Z,46.99
2024-03-15T17:18:32.768Z,46.45
2024-03-15T17:19:34.461Z,46.65
2024-03-15T17:20:36.096Z,46.75
2024-03-15T17:21:37.756Z,47.11
2024-03-15T17:22:39.364Z,46.87
2024-03-15T17:23:41.154Z,46.65
2024-03-15T17:24:42.815Z,46.76
2024-03-15T17:25:44.389Z,46.75
2024-03-15T17:26:45.923Z,46.73
2024-03-15T17:27:47.516Z,46.77
2024-03-15T17:28:49.172Z,46.88
2024-03-15T17:29:51.158Z,46.79
2024-03-15T17:30:56.166Z,46.95
2024-03-15T17:31:57.732Z,46.94
2024-03-15T17:32:59.491Z,46.92
2024-03-15T17:34:01.135Z,47.27
2024-03-15T17:35:02.775Z,46.81
2024-03-15T17:36:04.327Z,47.15
2024-03-15T17:37:06.003Z,47.14
2024-03-15T17:38:07.634Z,46.92
2024-03-15T17:39:09.275Z,46.91
2024-03-15T17:40:11.464Z,47.04
2024-03-15T17:41:13.175Z,46.98
2024-03-15T17:42:14.793Z,47.42
2024-03-15T17:43:16.369Z,46.92
2024-03-15T17:44:18.215Z,47.38
2024-03-15T17:45:19.849Z,46.99
2024-03-15T17:46:21.486Z,47.23
2024-03-15T17:47:23.089Z,47.34
2024-03-15T17:48:24.742Z,47.26
2024-03-15T17:49:26.418Z,47.21
2024-03-15T17:50:28.026Z,47.11
2024-03-15T17:51:29.826Z,47.13
2024-03-15T17:52:31.411Z,46.78
2024-03-15T17:53:33.015Z,47.26
2024-03-15T17:54:34.658Z,47.24
2024-03-15T17:55:36.297Z,46.92
2024-03-15T17:56:37.848Z,46.68
2024-03-15T17:57:39.470Z,46.79
2024-03-15T17:58:41.064Z,47.10
2024-03-15T17:59:42.683Z,46.93
2024-03-15T18:00:44.258Z,47.25
2024-03-15T18:01:45.897Z,47.12
2024-03-15T18:02:47.511Z,47.14
2024-03-15T18:03:49.172Z,46.81
2024-03-15T18:04:54.093Z,46.69
2024-03-15T18:05:55.653Z,47.10
2024-03-15T18:06:57.304Z,46.85
2024-03-15T18:07:58.878Z,46.91
2024-03-15T18:09:00.516Z,47.06
2024-03-15T18:10:02.329Z,47.18
2024-03-15T18:11:03.984Z,46.97
2024-03-15T18:12:05.604Z,46.83
2024-03-15T18:13:07.291Z,47.12
2024-03-15T18:14:08.920Z,47.17
2024-03-15T18:15:10.616Z,47.02
2024-03-15T18:16:12.258Z,47.18
2024-03-15T18:17:13.837Z,47.12
2024-03-15T18:18:15.464Z,46.93
2024-03-15T18:19:17.068Z,46.90
2024-03-15T18:20:18.659Z,47.17
2024-03-15T18:21:20.279Z,46.99
2024-03-15T18:22:21.863Z,47.29
2024-03-15T18:23:23.425Z,47.09
2024-03-15T18:24:25.705Z,47.33
2024-03-15T18:25:27.331Z,47.52
2024-03-15T18:26:28.913Z,47.48
2024-03-15T18:27:30.515Z,47.45
2024-03-15T18:28:32.092Z,47.30
2024-03-15T18:29:33.680Z,47.22
2024-03-15T18:30:35.273Z,47.48
2024-03-15T18:31:36.874Z,47.57
2024-03-15T18:32:38.534Z,47.37
2024-03-15T18:33:40.138Z,47.69
2024-03-15T18:34:41.720Z,47.81
2024-03-15T18:35:43.342Z,47.61
2024-03-15T18:36:44.963Z,47.74
2024-03-15T18:37:46.592Z,47.83
2024-03-15T18:38:48.284Z,48.28
2024-03-15T18:39:49.941Z,48.43
2024-03-15T18:40:51.622Z,48.65
2024-03-15T18:41:53.192Z,49.03
2024-03-15T18:42:54.819Z,49.15
2024-03-15T18:43:56.400Z,49.04
2024-03-15T18:44:58.204Z,49.45
2024-03-15T18:46:00.012Z,49.54
2024-03-15T18:47:01.659Z,49.26
2024-03-15T18:48:03.266Z,49.32
2024-03-15T18:49:04.936Z,49.38
2024-03-15T18:50:06.520Z,49.16
2024-03-15T18:51:08.110Z,49.43
2024-03-15T18:52:09.690Z,49.15
2024-03-15T18:53:11.289Z,49.50
2024-03-15T18:54:12.946Z,49.51
2024-03-15T18:55:14.492Z,49.17
2024-03-15T18:56:16.128Z,49.56
2024-03-15T18:57:17.989Z,49.28
2024-03-15T18:58:19.631Z,49.18
2024-03-15T18:59:21.206Z,49.15
2024-03-15T19:00:23.106Z,49.01
2024-03-15T19:01:25.000Z,49.07
2024-03-15T19:02:26.618Z,49.09
2024-03-15T19:03:28.323Z,48.92
2024-03-15T19:04:29.936Z,49.28
2024-03-15T19:05:31.527Z,48.82
2024-03-15T19:06:33.180Z,49.25
2024-03-15T19:07:37.078Z,48.98
2024-03-15T19:08:39.039Z,48.86
2024-03-15T19:09:40.681Z,49.01
2024-03-15T19:10:42.296Z,49.02
2024-03-15T19:11:46.370Z,49.03
2024-03-15T19:12:47.954Z,48.87
2024-03-15T19:13:49.566Z,49.09
2024-03-15T19:14:51.162Z,49.06
2024-03-15T19:15:52.812Z,48.90
2024-03-15T19:16:54.563Z,48.58
2024-03-15T19:17:56.278Z,48.93
2024-03-15T19:18:57.987Z,48.51
2024-03-15T19:19:59.588Z,48.65
2024-03-15T19:21:01.230Z,48.61
2024-03-15T19:22:02.823Z,48.71
2024-03-15T19:23:05.901Z,48.69
2024-03-15T19:24:08.657Z,48.68
2024-03-15T19:25:10.410Z,48.94
2024-03-15T19:26:12.014Z,49.09